createdAt,value
2019-04-16T00:04:31.551Z,99.99
2019-04-16T00:15:34.318Z,99.99
2019-04-16T00:26:34.594Z,99.99
2019-04-16T00:37:38.191Z,99.99
2019-04-16T00:48:36.060Z,99.99
2019-04-16T00:59:39.961Z,99.99
2019-04-16T01:10:38.533Z,99.99
2019-04-16T01:21:36.222Z,99.99
2019-04-16T01:32:42.467Z,99.99
2019-04-16T01:43:41.217Z,99.99
2019-04-16T01:54:38.231Z,99.99
2019-04-16T02:05:37.892Z,99.99
2019-04-16T02:16:39.302Z,99.99
2019-04-16T02:27:43.210Z,99.99
2019-04-16T02:38:53.326Z,99.99
2019-04-16T02:49:56.376Z,99.99
2019-04-16T03:01:00.079Z,99.99
2019-04-16T03:11:59.416Z,99.99
2019-04-16T03:22:59.506Z,99.99
2019-04-16T03:34:03.705Z,99.99
2019-04-16T03:45:08.044Z,99.99
2019-04-16T03:56:09.780Z,99.99
2019-04-16T04:07:12.064Z,99.99
2019-04-16T04:18:12.911Z,99.99
2019-04-16T04:29:16.549Z,99.99
2019-04-16T04:40:17.795Z,99.99
2019-04-16T04:51:15.867Z,99.99
2019-04-16T05:02:17.888Z,99.99
2019-04-16T05:13:23.941Z,99.99
2019-04-16T05:24:18.466Z,99.99
2019-04-16T05:35:21.017Z,99.99
2019-04-16T05:46:15.850Z,99.99
2019-04-16T05:57:19.356Z,99.99
2019-04-16T06:08:19.957Z,99.99
2019-04-16T06:19:08.455Z,99.99
2019-04-16T06:30:16.085Z,99.99
2019-04-16T06:41:17.429Z,99.99
2019-04-16T06:51:59.799Z,99.99
2019-04-16T07:03:04.254Z,99.99
2019-04-16T07:14:06.033Z,99.99
2019-04-16T07:25:05.799Z,99.99
2019-04-16T07:36:11.309Z,99.99
2019-04-16T07:47:10.657Z,99.99
2019-04-16T07:58:13.666Z,98.14
2019-04-16T08:09:09.281Z,92.00
2019-04-16T08:20:06.437Z,91.51
2019-04-16T08:31:12.291Z,88.73
2019-04-16T08:42:13.257Z,89.45
2019-04-16T08:53:16.256Z,88.34
2019-04-16T09:04:17.255Z,86.98
2019-04-16T09:15:17.291Z,84.56
2019-04-16T09:26:22.502Z,89.18
2019-04-16T09:37:19.560Z,87.74
2019-04-16T09:48:20.964Z,87.44
2019-04-16T09:59:20.021Z,82.59
2019-04-16T10:10:24.268Z,84.45
2019-04-16T10:21:23.587Z,77.86
2019-04-16T10:32:22.818Z,81.45
2019-04-16T10:43:15.501Z,77.04
2019-04-16T10:54:15.317Z,78.67
2019-04-16T11:05:19.200Z,79.47
2019-04-16T11:16:23.481Z,76.96
2019-04-16T11:27:23.299Z,78.52
2019-04-16T11:38:22.601Z,73.70
2019-04-16T11:49:19.705Z,71.03
2019-04-16T12:00:24.293Z,75.37
2019-04-16T12:11:28.112Z,73.29
2019-04-16T12:22:25.738Z,75.63
2019-04-16T12:33:27.005Z,71.19
2019-04-16T12:44:24.459Z,72.96
2019-04-16T12:55:31.478Z,73.42
2019-04-16T13:06:29.299Z,73.42
2019-04-16T13:17:14.831Z,66.79
2019-04-16T13:27:58.110Z,69.62
2019-04-16T13:38:43.451Z,67.29
2019-04-16T13:49:41.869Z,66.94
2019-04-16T14:00:27.793Z,66.43
2019-04-16T14:11:16.477Z,64.87
2019-04-16T14:21:56.171Z,66.60
2019-04-16T14:32:40.476Z,63.57
2019-04-16T14:43:19.049Z,68.16
2019-04-16T14:54:01.017Z,69.36
2019-04-16T15:04:40.090Z,69.29
2019-04-16T15:15:38.432Z,66.90
2019-04-16T15:26:33.774Z,68.76
2019-04-16T15:37:37.265Z,71.76
2019-04-16T15:48:38.770Z,71.36
2019-04-16T15:59:31.633Z,74.73
2019-04-16T16:10:29.577Z,74.84
2019-04-16T16:21:30.434Z,76.12
2019-04-16T16:32:33.031Z,80.17
2019-04-16T16:43:29.405Z,81.76
2019-04-16T16:54:25.450Z,85.56
2019-04-16T17:05:29.492Z,84.94
2019-04-16T17:16:26.071Z,84.27
2019-04-16T17:27:25.303Z,94.53
2019-04-16T17:38:27.732Z,99.99
2019-04-16T17:49:25.204Z,99.99
2019-04-16T18:00:27.683Z,99.99
2019-04-16T18:11:25.708Z,99.99
2019-04-16T18:22:15.716Z,99.99
2019-04-16T18:33:14.789Z,99.99
2019-04-16T18:44:12.694Z,99.99
2019-04-16T18:55:09.674Z,99.99
2019-04-16T19:06:11.309Z,99.99
2019-04-16T19:17:11.715Z,99.99
2019-04-16T19:28:08.072Z,99.99
2019-04-16T19:39:13.824Z,99.99
2019-04-16T19:50:09.748Z,99.99
2019-04-16T20:01:06.405Z,99.99
2019-04-16T20:12:02.336Z,99.99
2019-04-16T20:23:02.382Z,99.99
2019-04-16T20:34:05.728Z,99.99
2019-04-16T20:45:07.775Z,99.99
2019-04-16T20:56:10.892Z,99.99
2019-04-16T21:07:15.360Z,99.99
2019-04-16T21:18:12.756Z,99.99
2019-04-16T21:29:16.813Z,99.99
2019-04-16T21:40:23.189Z,99.99
2019-04-16T21:51:24.976Z,99.99
2019-04-16T22:02:24.782Z,99.99
2019-04-16T22:13:23.187Z,99.99
2019-04-16T22:24:24.469Z,99.99
2019-04-16T22:35:25.178Z,99.99
2019-04-16T22:46:27.674Z,99.99
2019-04-16T22:57:30.961Z,99.99
2019-04-16T23:08:35.630Z,99.99
2019-04-16T23:19:38.694Z,99.99
2019-04-16T23:30:38.257Z,99.99
2019-04-16T23:41:47.915Z,99.99
2019-04-16T23:52:51.475Z,99.99
